createdAt,value
2019-03-31T16:08:39.008Z,91.77
2019-03-31T16:11:07.268Z,126.30
2019-03-31T16:13:35.916Z,79.30
2019-03-31T16:16:04.249Z,126.77
2019-03-31T16:18:32.952Z,329.80
2019-03-31T16:21:01.403Z,135.97
2019-03-31T16:23:31.202Z,135.23
2019-03-31T16:26:00.130Z,110.70
2019-03-31T16:28:28.695Z,45.47
2019-03-31T16:30:57.397Z,3.07
2019-03-31T16:33:25.976Z,67.10
2019-03-31T16:35:54.626Z,5.00
2019-03-31T16:38:25.776Z,44.57
2019-03-31T16:40:53.528Z,79.10
2019-03-31T16:43:22.183Z,61.93
2019-03-31T16:45:50.818Z,66.00
2019-03-31T16:48:22.095Z,58.53
2019-03-31T16:50:51.894Z,167.30
2019-03-31T16:53:20.684Z,137.60
2019-03-31T16:55:50.334Z,196.63
2019-03-31T16:58:18.970Z,108.93
2019-03-31T17:00:47.730Z,2.20
2019-03-31T17:03:18.404Z,70.50
2019-03-31T17:05:47.009Z,12.93
2019-03-31T17:08:15.670Z,56.50
2019-03-31T17:10:44.507Z,89.73
2019-03-31T17:13:13.133Z,31.73
2019-03-31T17:15:41.828Z,3.23
2019-03-31T17:18:10.456Z,34.33
2019-03-31T17:20:39.015Z,3.27
2019-03-31T17:23:07.706Z,3.73
2019-03-31T17:25:36.220Z,3.17
2019-03-31T17:28:04.778Z,3.13
2019-03-31T17:30:33.887Z,32.20
2019-03-31T17:33:02.409Z,96.77
2019-03-31T17:35:31.044Z,27.47
2019-03-31T17:38:00.231Z,5.33
2019-03-31T17:40:28.866Z,11.87
2019-03-31T17:42:57.926Z,56.13
2019-03-31T17:45:28.319Z,5.13
2019-03-31T17:47:56.953Z,3.20
2019-03-31T17:50:25.577Z,2.67
2019-03-31T17:52:55.168Z,3.37
2019-03-31T17:55:23.864Z,3.47
2019-03-31T17:57:52.599Z,2.67
2019-03-31T18:00:21.526Z,3.40
2019-03-31T18:02:50.004Z,2.80
2019-03-31T18:05:18.742Z,2.87
2019-03-31T18:07:47.487Z,2.30
2019-03-31T18:10:21.142Z,3.40
2019-03-31T18:12:46.456Z,31.93
2019-03-31T18:15:18.223Z,7.57
2019-03-31T18:17:48.671Z,5.97
2019-03-31T18:20:17.347Z,2.20
2019-03-31T18:22:46.259Z,2.90
2019-03-31T18:25:15.396Z,37.50
2019-03-31T18:27:44.233Z,213.23
2019-03-31T18:30:16.067Z,90.50
2019-03-31T18:32:44.906Z,77.97
2019-03-31T18:35:16.622Z,13.27
2019-03-31T18:37:43.953Z,11.93
2019-03-31T18:40:12.624Z,9.50
2019-03-31T18:42:41.752Z,9.20
2019-03-31T18:45:10.314Z,42.23
2019-03-31T18:47:40.171Z,94.17
2019-03-31T18:50:08.803Z,82.40
2019-03-31T18:52:38.529Z,49.93
2019-03-31T18:55:11.545Z,87.13
2019-03-31T18:57:44.653Z,82.40
2019-03-31T19:00:33.170Z,83.57
2019-03-31T19:03:06.266Z,93.77
2019-03-31T19:05:39.333Z,55.73
2019-03-31T19:08:09.543Z,44.90
2019-03-31T19:10:49.303Z,19.83
2019-03-31T19:13:30.842Z,56.10
2019-03-31T19:16:04.817Z,79.30
2019-03-31T19:18:38.190Z,71.53
2019-03-31T19:21:14.402Z,103.30
2019-03-31T19:23:56.605Z,70.97
2019-03-31T19:26:48.671Z,110.40
2019-03-31T19:29:34.869Z,8.37
2019-03-31T19:32:20.374Z,116.70
2019-03-31T19:34:57.610Z,102.37
2019-03-31T19:37:33.847Z,133.50
2019-03-31T19:40:17.615Z,112.23
2019-03-31T19:43:06.937Z,33.33
2019-03-31T19:45:45.971Z,34.13
2019-03-31T19:48:28.347Z,49.60
2019-03-31T19:51:11.033Z,64.60
2019-03-31T19:53:48.016Z,50.60
2019-03-31T19:56:33.281Z,111.33
2019-03-31T19:59:18.924Z,114.77
2019-03-31T20:01:58.623Z,66.73
2019-03-31T20:04:35.505Z,32.47
2019-03-31T20:07:21.604Z,9.83
2019-03-31T20:10:01.069Z,69.50
2019-03-31T20:12:34.390Z,75.03
2019-03-31T20:15:04.781Z,70.33
2019-03-31T20:17:44.139Z,86.80
2019-03-31T20:20:20.209Z,59.33
2019-03-31T20:23:08.191Z,84.10
2019-03-31T20:25:50.840Z,75.33
2019-03-31T20:28:37.587Z,78.00
2019-03-31T20:31:20.125Z,96.07
2019-03-31T20:34:00.555Z,71.30
2019-03-31T20:36:30.999Z,53.50
2019-03-31T20:39:16.523Z,40.30
2019-03-31T20:41:47.058Z,59.47
2019-03-31T20:44:15.691Z,53.57
2019-03-31T20:46:44.433Z,59.23
2019-03-31T20:49:13.072Z,67.33
2019-03-31T20:51:41.819Z,58.87
2019-03-31T20:54:10.565Z,81.83
2019-03-31T20:56:39.587Z,73.87
2019-03-31T20:59:08.138Z,33.97
2019-03-31T21:01:36.799Z,21.70
2019-03-31T21:04:05.455Z,29.17
2019-03-31T21:06:34.136Z,21.50
2019-03-31T21:09:02.794Z,4.30
2019-03-31T21:11:31.654Z,24.20
2019-03-31T21:14:00.282Z,32.13
2019-03-31T21:16:28.870Z,27.53
2019-03-31T21:18:57.585Z,132.93
2019-03-31T21:21:26.859Z,60.60
2019-03-31T21:23:55.510Z,11.77
2019-03-31T21:26:24.368Z,23.37
2019-03-31T21:28:52.921Z,39.63
2019-03-31T21:31:21.491Z,85.23
2019-03-31T21:33:50.110Z,90.33
2019-03-31T21:36:18.765Z,76.03
2019-03-31T21:38:49.925Z,63.50
2019-03-31T21:41:18.537Z,75.43
2019-03-31T21:43:47.341Z,121.70
2019-03-31T21:46:16.204Z,103.67
2019-03-31T21:48:45.447Z,41.27
2019-03-31T21:51:14.050Z,7.03
2019-03-31T21:53:42.625Z,4.40
2019-03-31T21:56:11.420Z,4.67
2019-03-31T21:58:39.912Z,5.40
2019-03-31T22:01:08.412Z,4.03
2019-03-31T22:03:37.156Z,3.90
2019-03-31T22:06:05.837Z,4.00
2019-03-31T22:08:34.793Z,4.20
2019-03-31T22:11:03.441Z,3.97
2019-03-31T22:13:32.017Z,3.63
2019-03-31T22:16:00.570Z,3.07
2019-03-31T22:18:29.294Z,3.90
2019-03-31T22:20:57.865Z,3.90
2019-03-31T22:23:26.788Z,3.80
2019-03-31T22:25:55.264Z,4.20
2019-03-31T22:28:23.854Z,5.47
2019-03-31T22:30:52.333Z,4.87
2019-03-31T22:33:20.962Z,4.90
2019-03-31T22:36:07.304Z,4.83
2019-03-31T22:38:35.917Z,6.03
2019-03-31T22:41:04.430Z,5.40
2019-03-31T22:43:32.988Z,5.10
2019-03-31T22:46:01.626Z,4.90
2019-03-31T22:48:30.276Z,6.30
2019-03-31T22:51:00.419Z,4.33
2019-03-31T22:53:29.106Z,4.53
2019-03-31T22:55:57.571Z,4.40
2019-03-31T22:58:26.203Z,4.80
2019-03-31T23:00:55.333Z,4.90
2019-03-31T23:03:23.823Z,5.97
2019-03-31T23:05:53.946Z,6.80
2019-03-31T23:08:22.657Z,10.03
2019-03-31T23:10:51.207Z,9.10
2019-03-31T23:13:19.680Z,7.37
2019-03-31T23:15:48.296Z,6.73
2019-03-31T23:18:16.959Z,6.00
2019-03-31T23:20:45.436Z,11.50
2019-03-31T23:23:14.044Z,29.83
2019-03-31T23:25:42.478Z,47.30
2019-03-31T23:28:11.094Z,19.50
2019-03-31T23:30:39.705Z,6.30
2019-03-31T23:33:08.257Z,6.20
2019-03-31T23:35:36.829Z,38.33
2019-03-31T23:38:05.440Z,9.10
2019-03-31T23:40:34.063Z,30.07
2019-03-31T23:43:02.552Z,18.53
2019-03-31T23:45:32.514Z,50.83
2019-03-31T23:48:01.124Z,53.63
2019-03-31T23:50:29.667Z,8.70
2019-03-31T23:52:58.193Z,5.97
2019-03-31T23:55:26.741Z,7.23
2019-03-31T23:57:55.229Z,5.33
